sensor_id;sensor_type;location;lat;lon;timestamp;pressure;altitude;pressure_sealevel;temperature;humidity
33280;BME280;20403;43.114;12.434;2023-12-28T00:02:14;100370.47;;;8.13;100.00
33280;BME280;20403;43.114;12.434;2023-12-28T00:04:41;100365.88;;;8.15;100.00
33280;BME280;20403;43.114;12.434;2023-12-28T00:07:06;100366.53;;;8.17;100.00
33280;BME280;20403;43.114;12.434;2023-12-28T00:09:32;100368.22;;;8.10;100.00
33280;BME280;20403;43.114;12.434;2023-12-28T00:11:58;100378.56;;;8.18;100.00
33280;BME280;20403;43.114;12.434;2023-12-28T00:14:23;100380.88;;;8.13;100.00
33280;BME280;20403;43.114;12.434;2023-12-28T00:16:49;100375.84;;;8.12;100.00
33280;BME280;20403;43.114;12.434;2023-12-28T00:19:14;100372.25;;;8.13;100.00
33280;BME280;20403;43.114;12.434;2023-12-28T00:21:40;100381.31;;;8.17;100.00
33280;BME280;20403;43.114;12.434;2023-12-28T00:24:05;100380.34;;;8.18;100.00
33280;BME280;20403;43.114;12.434;2023-12-28T00:26:31;100383.91;;;8.17;100.00
33280;BME280;20403;43.114;12.434;2023-12-28T00:28:56;100379.19;;;8.20;100.00
33280;BME280;20403;43.114;12.434;2023-12-28T00:31:22;100380.75;;;8.30;100.00
33280;BME280;20403;43.114;12.434;2023-12-28T00:33:47;100383.88;;;8.25;100.00
33280;BME280;20403;43.114;12.434;2023-12-28T00:36:14;100391.31;;;8.28;100.00
33280;BME280;20403;43.114;12.434;2023-12-28T00:38:39;100389.06;;;8.25;100.00
33280;BME280;20403;43.114;12.434;2023-12-28T00:41:04;100390.13;;;8.31;100.00
33280;BME280;20403;43.114;12.434;2023-12-28T00:43:30;100381.19;;;8.33;100.00
33280;BME280;20403;43.114;12.434;2023-12-28T00:45:56;100380.75;;;8.30;100.00
33280;BME280;20403;43.114;12.434;2023-12-28T00:48:21;100383.63;;;8.35;100.00
33280;BME280;20403;43.114;12.434;2023-12-28T00:50:47;100385.41;;;8.34;100.00
33280;BME280;20403;43.114;12.434;2023-12-28T00:53:12;100383.16;;;8.31;100.00
33280;BME280;20403;43.114;12.434;2023-12-28T00:55:37;100391.41;;;8.35;100.00
33280;BME280;20403;43.114;12.434;2023-12-28T00:58:03;100391.25;;;8.36;100.00
33280;BME280;20403;43.114;12.434;2023-12-28T01:00:29;100394.00;;;8.35;100.00
33280;BME280;20403;43.114;12.434;2023-12-28T01:02:54;100399.91;;;8.29;100.00
33280;BME280;20403;43.114;12.434;2023-12-28T01:05:20;100404.66;;;8.25;100.00
33280;BME280;20403;43.114;12.434;2023-12-28T01:07:46;100406.91;;;8.28;100.00
33280;BME280;20403;43.114;12.434;2023-12-28T01:10:12;100401.13;;;8.18;100.00
33280;BME280;20403;43.114;12.434;2023-12-28T01:12:37;100406.13;;;8.19;100.00
33280;BME280;20403;43.114;12.434;2023-12-28T01:15:03;100402.84;;;8.26;100.00
33280;BME280;20403;43.114;12.434;2023-12-28T01:17:28;100402.22;;;8.24;100.00
33280;BME280;20403;43.114;12.434;2023-12-28T01:19:54;100404.81;;;8.24;100.00
33280;BME280;20403;43.114;12.434;2023-12-28T01:22:19;100406.50;;;8.16;100.00
33280;BME280;20403;43.114;12.434;2023-12-28T01:24:48;100409.13;;;8.08;100.00
33280;BME280;20403;43.114;12.434;2023-12-28T01:27:14;100402.19;;;8.09;100.00
33280;BME280;20403;43.114;12.434;2023-12-28T01:29:40;100405.38;;;8.11;100.00
33280;BME280;20403;43.114;12.434;2023-12-28T01:32:05;100400.66;;;8.14;100.00
33280;BME280;20403;43.114;12.434;2023-12-28T01:34:31;100410.19;;;8.22;100.00
33280;BME280;20403;43.114;12.434;2023-12-28T01:36:56;100413.59;;;8.23;100.00
33280;BME280;20403;43.114;12.434;2023-12-28T01:39:22;100404.25;;;8.13;100.00
33280;BME280;20403;43.114;12.434;2023-12-28T01:41:47;100404.56;;;8.10;100.00
33280;BME280;20403;43.114;12.434;2023-12-28T01:44:12;100415.44;;;8.14;100.00
33280;BME280;20403;43.114;12.434;2023-12-28T01:46:38;100410.41;;;8.12;100.00
33280;BME280;20403;43.114;12.434;2023-12-28T01:49:04;100414.13;;;8.18;100.00
33280;BME280;20403;43.114;12.434;2023-12-28T01:51:30;100410.41;;;8.12;100.00
33280;BME280;20403;43.114;12.434;2023-12-28T01:53:57;100418.16;;;8.20;100.00
33280;BME280;20403;43.114;12.434;2023-12-28T01:56:23;100414.28;;;8.16;100.00
33280;BME280;20403;43.114;12.434;2023-12-28T01:58:49;100411.81;;;8.23;100.00
33280;BME280;20403;43.114;12.434;2023-12-28T02:01:16;100409.91;;;8.17;100.00
33280;BME280;20403;43.114;12.434;2023-12-28T02:03:42;100403.81;;;8.25;100.00
33280;BME280;20403;43.114;12.434;2023-12-28T02:06:08;100400.66;;;8.14;100.00
33280;BME280;20403;43.114;12.434;2023-12-28T02:08:33;100403.78;;;8.10;100.00
33280;BME280;20403;43.114;12.434;2023-12-28T02:10:59;100399.84;;;8.14;100.00
33280;BME280;20403;43.114;12.434;2023-12-28T02:13:25;100396.38;;;8.21;100.00
33280;BME280;20403;43.114;12.434;2023-12-28T02:16:33;100398.28;;;8.28;100.00
33280;BME280;20403;43.114;12.434;2023-12-28T02:19:00;100384.50;;;8.27;100.00
33280;BME280;20403;43.114;12.434;2023-12-28T02:21:29;100386.28;;;8.27;100.00
33280;BME280;20403;43.114;12.434;2023-12-28T02:23:56;100392.00;;;8.22;100.00
33280;BME280;20403;43.114;12.434;2023-12-28T02:26:22;100389.75;;;8.19;100.00
33280;BME280;20403;43.114;12.434;2023-12-28T02:28:47;100386.00;;;8.21;100.00
33280;BME280;20403;43.114;12.434;2023-12-28T02:31:23;100382.06;;;8.26;100.00
33280;BME280;20403;43.114;12.434;2023-12-28T02:33:59;100381.59;;;8.22;100.00
33280;BME280;20403;43.114;12.434;2023-12-28T02:36:29;100380.63;;;8.23;100.00
33280;BME280;20403;43.114;12.434;2023-12-28T02:38:56;100379.47;;;8.26;100.00
33280;BME280;20403;43.114;12.434;2023-12-28T02:41:24;100375.06;;;8.26;100.00
33280;BME280;20403;43.114;12.434;2023-12-28T02:43:50;100369.28;;;8.39;100.00
33280;BME280;20403;43.114;12.434;2023-12-28T02:46:16;100364.31;;;8.29;100.00
33280;BME280;20403;43.114;12.434;2023-12-28T02:48:42;100369.06;;;8.26;100.00
33280;BME280;20403;43.114;12.434;2023-12-28T02:51:07;100362.56;;;8.30;100.00
33280;BME280;20403;43.114;12.434;2023-12-28T02:53:33;100362.81;;;8.35;100.00
33280;BME280;20403;43.114;12.434;2023-12-28T02:55:58;100358.91;;;8.39;100.00
33280;BME280;20403;43.114;12.434;2023-12-28T02:58:23;100350.19;;;8.32;100.00
33280;BME280;20403;43.114;12.434;2023-12-28T03:00:49;100357.00;;;8.33;100.00
33280;BME280;20403;43.114;12.434;2023-12-28T03:03:14;100346.72;;;8.39;100.00
33280;BME280;20403;43.114;12.434;2023-12-28T03:05:40;100346.44;;;8.34;100.00
33280;BME280;20403;43.114;12.434;2023-12-28T03:08:06;100351.28;;;8.37;100.00
33280;BME280;20403;43.114;12.434;2023-12-28T03:10:31;100351.75;;;8.41;100.00
33280;BME280;20403;43.114;12.434;2023-12-28T03:12:57;100342.03;;;8.35;100.00
33280;BME280;20403;43.114;12.434;2023-12-28T03:15:23;100335.22;;;8.34;100.00
33280;BME280;20403;43.114;12.434;2023-12-28T03:17:48;100348.16;;;8.42;100.00
33280;BME280;20403;43.114;12.434;2023-12-28T03:20:15;100348.50;;;8.39;100.00
33280;BME280;20403;43.114;12.434;2023-12-28T03:22:40;100338.44;;;8.36;100.00
33280;BME280;20403;43.114;12.434;2023-12-28T03:25:06;100344.00;;;8.33;100.00
33280;BME280;20403;43.114;12.434;2023-12-28T03:27:31;100339.50;;;8.27;100.00
33280;BME280;20403;43.114;12.434;2023-12-28T03:29:57;100342.56;;;8.30;100.00
33280;BME280;20403;43.114;12.434;2023-12-28T03:32:22;100341.41;;;8.33;100.00
33280;BME280;20403;43.114;12.434;2023-12-28T03:34:48;100344.00;;;8.33;100.00
33280;BME280;20403;43.114;12.434;2023-12-28T03:37:13;100338.00;;;8.32;100.00
33280;BME280;20403;43.114;12.434;2023-12-28T03:39:38;100339.44;;;8.35;100.00
33280;BME280;20403;43.114;12.434;2023-12-28T03:42:04;100341.13;;;8.28;100.00
33280;BME280;20403;43.114;12.434;2023-12-28T03:44:29;100344.69;;;8.27;100.00
33280;BME280;20403;43.114;12.434;2023-12-28T03:46:55;100338.06;;;8.24;100.00
33280;BME280;20403;43.114;12.434;2023-12-28T03:49:21;100346.22;;;8.21;100.00
33280;BME280;20403;43.114;12.434;2023-12-28T03:51:48;100336.19;;;8.33;100.00
33280;BME280;20403;43.114;12.434;2023-12-28T03:54:18;100337.78;;;8.42;100.00
33280;BME280;20403;43.114;12.434;2023-12-28T03:56:44;100338.28;;;8.37;100.00
33280;BME280;20403;43.114;12.434;2023-12-28T03:59:10;100329.47;;;8.38;100.00
33280;BME280;20403;43.114;12.434;2023-12-28T04:01:35;100333.72;;;8.39;100.00
33280;BME280;20403;43.114;12.434;2023-12-28T04:04:01;100335.56;;;8.31;100.00
33280;BME280;20403;43.114;12.434;2023-12-28T04:06:27;100333.50;;;8.26;100.00
33280;BME280;20403;43.114;12.434;2023-12-28T04:08:52;100332.22;;;8.22;100.00
33280;BME280;20403;43.114;12.434;2023-12-28T04:11:18;100336.47;;;8.23;100.00
33280;BME280;20403;43.114;12.434;2023-12-28T04:13:43;100330.25;;;8.24;100.00
33280;BME280;20403;43.114;12.434;2023-12-28T04:16:12;100337.53;;;8.29;100.00
33280;BME280;20403;43.114;12.434;2023-12-28T04:18:38;100336.91;;;8.27;100.00
33280;BME280;20403;43.114;12.434;2023-12-28T04:21:03;100334.94;;;8.29;100.00
33280;BME280;20403;43.114;12.434;2023-12-28T04:23:29;100336.56;;;8.30;100.00
33280;BME280;20403;43.114;12.434;2023-12-28T04:25:54;100332.16;;;8.30;100.00
33280;BME280;20403;43.114;12.434;2023-12-28T04:28:19;100328.66;;;8.23;100.00
33280;BME280;20403;43.114;12.434;2023-12-28T04:30:45;100334.31;;;8.27;100.00
33280;BME280;20403;43.114;12.434;2023-12-28T04:33:10;100331.69;;;8.27;100.00
33280;BME280;20403;43.114;12.434;2023-12-28T04:35:36;100334.13;;;8.28;100.00
33280;BME280;20403;43.114;12.434;2023-12-28T04:38:01;100343.63;;;8.21;100.00
33280;BME280;20403;43.114;12.434;2023-12-28T04:40:26;100339.75;;;8.17;100.00
33280;BME280;20403;43.114;12.434;2023-12-28T04:42:52;100347.38;;;8.18;100.00
33280;BME280;20403;43.114;12.434;2023-12-28T04:45:17;100343.50;;;8.14;100.00
33280;BME280;20403;43.114;12.434;2023-12-28T04:47:43;100349.97;;;8.18;100.00
33280;BME280;20403;43.114;12.434;2023-12-28T04:50:08;100351.41;;;8.21;100.00
33280;BME280;20403;43.114;12.434;2023-12-28T04:52:33;100355.50;;;8.15;100.00
33280;BME280;20403;43.114;12.434;2023-12-28T04:54:59;100366.63;;;8.24;100.00
33280;BME280;20403;43.114;12.434;2023-12-28T04:57:24;100359.84;;;8.23;100.00
33280;BME280;20403;43.114;12.434;2023-12-28T04:59:51;100361.28;;;8.26;100.00
33280;BME280;20403;43.114;12.434;2023-12-28T05:02:17;100363.53;;;8.29;100.00
33280;BME280;20403;43.114;12.434;2023-12-28T05:04:42;100365.69;;;8.25;100.00
33280;BME280;20403;43.114;12.434;2023-12-28T05:07:08;100364.28;;;8.14;100.00
33280;BME280;20403;43.114;12.434;2023-12-28T05:09:33;100375.03;;;8.11;100.00
33280;BME280;20403;43.114;12.434;2023-12-28T05:11:59;100369.47;;;8.14;100.00
33280;BME280;20403;43.114;12.434;2023-12-28T05:14:24;100367.53;;;8.16;100.00
33280;BME280;20403;43.114;12.434;2023-12-28T05:16:50;100370.47;;;8.13;100.00
33280;BME280;20403;43.114;12.434;2023-12-28T05:19:16;100370.03;;;8.25;100.00
33280;BME280;20403;43.114;12.434;2023-12-28T05:21:41;100366.47;;;8.26;100.00
33280;BME280;20403;43.114;12.434;2023-12-28T05:24:07;100362.97;;;8.18;100.00
33280;BME280;20403;43.114;12.434;2023-12-28T05:26:32;100363.75;;;8.19;100.00
33280;BME280;20403;43.114;12.434;2023-12-28T05:28:57;100365.44;;;8.12;100.00
33280;BME280;20403;43.114;12.434;2023-12-28T05:31:23;100369.38;;;8.08;100.00
33280;BME280;20403;43.114;12.434;2023-12-28T05:33:48;100362.72;;;8.05;100.00
33280;BME280;20403;43.114;12.434;2023-12-28T05:36:14;100366.88;;;8.14;100.00
33280;BME280;20403;43.114;12.434;2023-12-28T05:38:39;100364.56;;;8.19;100.00
33280;BME280;20403;43.114;12.434;2023-12-28T05:41:04;100368.16;;;8.18;100.00
33280;BME280;20403;43.114;12.434;2023-12-28T05:43:30;100369.47;;;8.14;100.00
33280;BME280;20403;43.114;12.434;2023-12-28T05:45:55;100373.25;;;8.12;100.00
33280;BME280;20403;43.114;12.434;2023-12-28T05:48:21;100372.44;;;8.11;100.00
33280;BME280;20403;43.114;12.434;2023-12-28T05:50:46;100375.25;;;8.02;100.00
33280;BME280;20403;43.114;12.434;2023-12-28T05:53:11;100376.53;;;8.06;100.00
33280;BME280;20403;43.114;12.434;2023-12-28T05:55:42;100372.66;;;8.02;100.00
33280;BME280;20403;43.114;12.434;2023-12-28T05:58:08;100368.28;;;8.02;100.00
33280;BME280;20403;43.114;12.434;2023-12-28T06:00:34;100367.16;;;7.96;100.00
33280;BME280;20403;43.114;12.434;2023-12-28T06:03:02;100366.66;;;8.01;100.00
33280;BME280;20403;43.114;12.434;2023-12-28T06:05:27;100369.19;;;8.09;100.00
33280;BME280;20403;43.114;12.434;2023-12-28T06:07:52;100365.81;;;8.09;100.00
33280;BME280;20403;43.114;12.434;2023-12-28T06:10:19;100370.53;;;8.05;100.00
33280;BME280;20403;43.114;12.434;2023-12-28T06:12:45;100364.94;;;8.16;100.00
33280;BME280;20403;43.114;12.434;2023-12-28T06:15:10;100364.13;;;8.16;100.00
33280;BME280;20403;43.114;12.434;2023-12-28T06:17:35;100372.03;;;8.23;100.00
33280;BME280;20403;43.114;12.434;2023-12-28T06:20:01;100369.13;;;8.17;100.00
33280;BME280;20403;43.114;12.434;2023-12-28T06:22:27;100364.44;;;8.13;100.00
33280;BME280;20403;43.114;12.434;2023-12-28T06:24:55;100362.69;;;8.13;100.00
33280;BME280;20403;43.114;12.434;2023-12-28T06:27:21;100368.72;;;8.06;100.00
33280;BME280;20403;43.114;12.434;2023-12-28T06:29:47;100373.47;;;8.02;100.00
33280;BME280;20403;43.114;12.434;2023-12-28T06:32:12;100376.25;;;8.00;100.00
33280;BME280;20403;43.114;12.434;2023-12-28T06:34:37;100380.91;;;8.05;100.00
33280;BME280;20403;43.114;12.434;2023-12-28T06:37:03;100387.38;;;8.09;100.00
33280;BME280;20403;43.114;12.434;2023-12-28T06:39:29;100388.03;;;8.11;100.00
33280;BME280;20403;43.114;12.434;2023-12-28T06:41:54;100387.84;;;8.13;100.00
33280;BME280;20403;43.114;12.434;2023-12-28T06:44:19;100386.59;;;8.09;100.00
33280;BME280;20403;43.114;12.434;2023-12-28T06:46:45;100389.19;;;8.09;100.00
33280;BME280;20403;43.114;12.434;2023-12-28T06:49:10;100387.72;;;8.06;100.00
33280;BME280;20403;43.114;12.434;2023-12-28T06:51:36;100385.94;;;8.07;100.00
33280;BME280;20403;43.114;12.434;2023-12-28T06:54:01;100386.63;;;8.00;100.00
33280;BME280;20403;43.114;12.434;2023-12-28T06:56:27;100390.50;;;8.05;100.00
33280;BME280;20403;43.114;12.434;2023-12-28T06:58:52;100391.06;;;8.15;100.00
33280;BME280;20403;43.114;12.434;2023-12-28T07:01:18;100398.41;;;8.11;100.00
33280;BME280;20403;43.114;12.434;2023-12-28T07:03:43;100401.97;;;8.10;100.00
33280;BME280;20403;43.114;12.434;2023-12-28T07:06:09;100393.50;;;8.16;100.00
33280;BME280;20403;43.114;12.434;2023-12-28T07:08:34;100402.97;;;8.09;100.00
33280;BME280;20403;43.114;12.434;2023-12-28T07:11:01;100406.66;;;8.15;100.00
33280;BME280;20403;43.114;12.434;2023-12-28T07:13:27;100395.09;;;8.17;100.00
33280;BME280;20403;43.114;12.434;2023-12-28T07:15:53;100391.88;;;8.15;100.00
33280;BME280;20403;43.114;12.434;2023-12-28T07:18:18;100398.19;;;8.21;100.00
33280;BME280;20403;43.114;12.434;2023-12-28T07:20:44;100398.88;;;8.15;100.00
33280;BME280;20403;43.114;12.434;2023-12-28T07:23:09;100400.03;;;8.12;100.00
33280;BME280;20403;43.114;12.434;2023-12-28T07:25:35;100407.25;;;8.25;100.00
33280;BME280;20403;43.114;12.434;2023-12-28T07:28:01;100403.78;;;8.33;100.00
33280;BME280;20403;43.114;12.434;2023-12-28T07:30:26;100408.28;;;8.39;100.00
33280;BME280;20403;43.114;12.434;2023-12-28T07:32:51;100409.78;;;8.33;100.00
33280;BME280;20403;43.114;12.434;2023-12-28T07:35:17;100403.25;;;8.37;100.00
33280;BME280;20403;43.114;12.434;2023-12-28T07:37:43;100400.81;;;8.36;100.00
33280;BME280;20403;43.114;12.434;2023-12-28T07:40:11;100401.34;;;8.31;100.00
33280;BME280;20403;43.114;12.434;2023-12-28T07:42:37;100400.81;;;8.36;100.00
33280;BME280;20403;43.114;12.434;2023-12-28T07:45:02;100394.59;;;8.45;100.00
33280;BME280;20403;43.114;12.434;2023-12-28T07:47:28;100391.38;;;8.43;100.00
33280;BME280;20403;43.114;12.434;2023-12-28T07:49:54;100391.66;;;8.48;100.00
33280;BME280;20403;43.114;12.434;2023-12-28T07:52:19;100388.88;;;8.50;100.00
33280;BME280;20403;43.114;12.434;2023-12-28T07:54:45;100397.16;;;8.53;100.00
33280;BME280;20403;43.114;12.434;2023-12-28T07:57:10;100406.38;;;8.56;100.00
33280;BME280;20403;43.114;12.434;2023-12-28T07:59:35;100410.31;;;8.52;100.00
33280;BME280;20403;43.114;12.434;2023-12-28T08:02:01;100414.34;;;8.54;100.00
33280;BME280;20403;43.114;12.434;2023-12-28T08:04:26;100418.22;;;8.58;100.00
33280;BME280;20403;43.114;12.434;2023-12-28T08:06:51;100413.00;;;8.58;100.00
33280;BME280;20403;43.114;12.434;2023-12-28T08:09:17;100416.09;;;8.62;100.00
33280;BME280;20403;43.114;12.434;2023-12-28T08:11:42;100417.00;;;8.69;100.00
33280;BME280;20403;43.114;12.434;2023-12-28T08:14:08;100423.69;;;8.63;100.00
33280;BME280;20403;43.114;12.434;2023-12-28T08:16:33;100430.84;;;8.61;100.00
33280;BME280;20403;43.114;12.434;2023-12-28T08:19:00;100434.09;;;8.63;100.00
33280;BME280;20403;43.114;12.434;2023-12-28T08:21:26;100434.38;;;8.69;100.00
33280;BME280;20403;43.114;12.434;2023-12-28T08:23:51;100440.84;;;8.73;100.00
33280;BME280;20403;43.114;12.434;2023-12-28T08:26:17;100439.41;;;8.70;100.00
33280;BME280;20403;43.114;12.434;2023-12-28T08:28:42;100447.47;;;8.75;100.00
33280;BME280;20403;43.114;12.434;2023-12-28T08:31:08;100446.03;;;8.73;100.00
33280;BME280;20403;43.114;12.434;2023-12-28T08:33:34;100439.66;;;8.75;100.00
33280;BME280;20403;43.114;12.434;2023-12-28T08:36:03;100446.66;;;8.75;100.00
33280;BME280;20403;43.114;12.434;2023-12-28T08:38:29;100444.53;;;8.78;100.00
33280;BME280;20403;43.114;12.434;2023-12-28T08:40:54;100454.41;;;8.83;100.00
33280;BME280;20403;43.114;12.434;2023-12-28T08:43:20;100451.56;;;8.93;100.00
33280;BME280;20403;43.114;12.434;2023-12-28T08:45:45;100451.72;;;8.91;100.00
33280;BME280;20403;43.114;12.434;2023-12-28T08:48:11;100453.00;;;8.95;100.00
33280;BME280;20403;43.114;12.434;2023-12-28T08:50:36;100451.28;;;9.02;100.00
33280;BME280;20403;43.114;12.434;2023-12-28T08:53:02;100460.97;;;8.94;100.00
33280;BME280;20403;43.114;12.434;2023-12-28T08:55:27;100471.56;;;8.92;100.00
33280;BME280;20403;43.114;12.434;2023-12-28T08:57:53;100467.00;;;8.94;100.00
33280;BME280;20403;43.114;12.434;2023-12-28T09:00:18;100469.06;;;8.99;100.00
33280;BME280;20403;43.114;12.434;2023-12-28T09:02:44;100475.72;;;9.01;100.00
33280;BME280;20403;43.114;12.434;2023-12-28T09:05:10;100470.78;;;9.07;100.00
33280;BME280;20403;43.114;12.434;2023-12-28T09:07:35;100475.63;;;9.10;100.00
33280;BME280;20403;43.114;12.434;2023-12-28T09:10:11;100475.72;;;9.16;100.00
33280;BME280;20403;43.114;12.434;2023-12-28T09:12:37;100482.88;;;9.14;100.00
33280;BME280;20403;43.114;12.434;2023-12-28T09:15:04;100484.84;;;9.12;100.00
33280;BME280;20403;43.114;12.434;2023-12-28T09:17:30;100488.28;;;9.13;100.00
33280;BME280;20403;43.114;12.434;2023-12-28T09:19:55;100487.28;;;9.14;100.00
33280;BME280;20403;43.114;12.434;2023-12-28T09:22:21;100485.31;;;9.16;100.00
33280;BME280;20403;43.114;12.434;2023-12-28T09:24:46;100488.47;;;9.26;100.00
33280;BME280;20403;43.114;12.434;2023-12-28T09:27:12;100484.09;;;9.27;100.00
33280;BME280;20403;43.114;12.434;2023-12-28T09:29:37;100479.16;;;9.32;100.00
33280;BME280;20403;43.114;12.434;2023-12-28T09:32:03;100478.50;;;9.44;100.00
33280;BME280;20403;43.114;12.434;2023-12-28T09:34:28;100482.81;;;9.37;100.00
33280;BME280;20403;43.114;12.434;2023-12-28T09:36:53;100480.22;;;9.37;100.00
33280;BME280;20403;43.114;12.434;2023-12-28T09:39:19;100480.13;;;9.45;100.00
33280;BME280;20403;43.114;12.434;2023-12-28T09:41:49;100475.28;;;9.42;100.00
33280;BME280;20403;43.114;12.434;2023-12-28T09:44:19;100474.94;;;9.45;100.00
33280;BME280;20403;43.114;12.434;2023-12-28T09:46:44;100474.19;;;9.52;100.00
33280;BME280;20403;43.114;12.434;2023-12-28T09:49:11;100483.72;;;9.59;100.00
33280;BME280;20403;43.114;12.434;2023-12-28T09:51:37;100465.13;;;9.62;100.00
33280;BME280;20403;43.114;12.434;2023-12-28T09:54:05;100473.94;;;9.61;100.00
33280;BME280;20403;43.114;12.434;2023-12-28T09:56:34;100470.34;;;9.62;100.00
33280;BME280;20403;43.114;12.434;2023-12-28T09:59:02;100468.78;;;9.68;100.00
33280;BME280;20403;43.114;12.434;2023-12-28T10:01:28;100461.81;;;9.68;100.00
33280;BME280;20403;43.114;12.434;2023-12-28T10:03:54;100460.81;;;9.70;100.00
33280;BME280;20403;43.114;12.434;2023-12-28T10:06:19;100457.47;;;9.76;100.00
33280;BME280;20403;43.114;12.434;2023-12-28T10:08:47;100462.78;;;9.82;100.00
33280;BME280;20403;43.114;12.434;2023-12-28T10:11:18;100461.66;;;9.92;100.00
33280;BME280;20403;43.114;12.434;2023-12-28T10:13:43;100457.81;;;9.87;100.00
33280;BME280;20403;43.114;12.434;2023-12-28T10:16:10;100457.00;;;9.87;100.00
33280;BME280;20403;43.114;12.434;2023-12-28T10:18:36;100452.06;;;9.92;100.00
33280;BME280;20403;43.114;12.434;2023-12-28T10:21:02;100446.53;;;10.02;100.00
33280;BME280;20403;43.114;12.434;2023-12-28T10:23:27;100452.53;;;10.02;100.00
33280;BME280;20403;43.114;12.434;2023-12-28T10:25:56;100445.75;;;10.01;100.00
33280;BME280;20403;43.114;12.434;2023-12-28T10:28:21;100444.72;;;10.02;100.00
33280;BME280;20403;43.114;12.434;2023-12-28T10:30:47;100442.97;;;10.03;100.00
33280;BME280;20403;43.114;12.434;2023-12-28T10:33:13;100430.53;;;10.05;100.00
33280;BME280;20403;43.114;12.434;2023-12-28T10:35:39;100431.97;;;10.07;100.00
33280;BME280;20403;43.114;12.434;2023-12-28T10:38:07;100422.22;;;10.16;100.00
33280;BME280;20403;43.114;12.434;2023-12-28T10:40:37;100428.91;;;10.25;100.00
33280;BME280;20403;43.114;12.434;2023-12-28T10:43:06;100423.25;;;10.37;100.00
33280;BME280;20403;43.114;12.434;2023-12-28T10:45:32;100420.47;;;10.38;100.00
33280;BME280;20403;43.114;12.434;2023-12-28T10:48:10;100418.66;;;10.39;100.00
33280;BME280;20403;43.114;12.434;2023-12-28T10:50:39;100408.66;;;10.42;100.00
33280;BME280;20403;43.114;12.434;2023-12-28T10:56:04;100396.31;;;10.58;100.00
33280;BME280;20403;43.114;12.434;2023-12-28T10:58:50;100394.84;;;10.70;100.00
33280;BME280;20403;43.114;12.434;2023-12-28T11:01:31;100393.47;;;10.81;100.00
33280;BME280;20403;43.114;12.434;2023-12-28T11:04:13;100396.53;;;10.84;100.00
33280;BME280;20403;43.114;12.434;2023-12-28T11:06:44;100384.16;;;10.93;100.00
33280;BME280;20403;43.114;12.434;2023-12-28T11:09:11;100375.53;;;10.99;100.00
33280;BME280;20403;43.114;12.434;2023-12-28T11:11:40;100378.53;;;10.96;100.00
33280;BME280;20403;43.114;12.434;2023-12-28T11:14:07;100370.91;;;11.01;100.00
33280;BME280;20403;43.114;12.434;2023-12-28T11:16:33;100364.16;;;11.13;100.00
33280;BME280;20403;43.114;12.434;2023-12-28T11:19:00;100357.94;;;11.14;100.00
33280;BME280;20403;43.114;12.434;2023-12-28T11:21:26;100354.31;;;11.15;100.00
33280;BME280;20403;43.114;12.434;2023-12-28T11:23:52;100350.94;;;11.22;100.00
33280;BME280;20403;43.114;12.434;2023-12-28T11:26:20;100348.94;;;11.24;100.00
33280;BME280;20403;43.114;12.434;2023-12-28T11:28:46;100347.78;;;11.33;100.00
33280;BME280;20403;43.114;12.434;2023-12-28T11:31:17;100346.59;;;11.42;100.00
33280;BME280;20403;43.114;12.434;2023-12-28T11:33:46;100345.78;;;11.35;100.00
33280;BME280;20403;43.114;12.434;2023-12-28T11:36:22;100349.59;;;11.32;100.00
33280;BME280;20403;43.114;12.434;2023-12-28T11:38:52;100335.72;;;11.39;100.00
33280;BME280;20403;43.114;12.434;2023-12-28T11:41:20;100332.94;;;11.40;100.00
33280;BME280;20403;43.114;12.434;2023-12-28T11:43:52;100322.91;;;11.44;100.00
33280;BME280;20403;43.114;12.434;2023-12-28T11:46:20;100310.84;;;11.49;100.00
33280;BME280;20403;43.114;12.434;2023-12-28T11:48:45;100301.22;;;11.50;100.00
33280;BME280;20403;43.114;12.434;2023-12-28T11:51:10;100303.22;;;11.54;100.00
33280;BME280;20403;43.114;12.434;2023-12-28T11:53:36;100310.66;;;11.57;100.00
33280;BME280;20403;43.114;12.434;2023-12-28T11:56:02;100289.78;;;11.64;100.00
33280;BME280;20403;43.114;12.434;2023-12-28T11:58:28;100295.22;;;11.63;100.00
33280;BME280;20403;43.114;12.434;2023-12-28T12:00:53;100288.00;;;11.65;100.00
33280;BME280;20403;43.114;12.434;2023-12-28T12:03:19;100279.75;;;11.68;100.00
33280;BME280;20403;43.114;12.434;2023-12-28T12:05:44;100273.50;;;11.75;100.00
33280;BME280;20403;43.114;12.434;2023-12-28T12:08:10;100274.91;;;11.78;100.00
33280;BME280;20403;43.114;12.434;2023-12-28T12:10:42;100275.94;;;11.84;100.00
33280;BME280;20403;43.114;12.434;2023-12-28T12:13:08;100271.34;;;11.92;100.00
33280;BME280;20403;43.114;12.434;2023-12-28T12:15:34;100269.94;;;12.03;100.00
33280;BME280;20403;43.114;12.434;2023-12-28T12:18:00;100259.88;;;12.07;100.00
33280;BME280;20403;43.114;12.434;2023-12-28T12:20:26;100259.88;;;12.07;100.00
33280;BME280;20403;43.114;12.434;2023-12-28T12:22:57;100263.91;;;12.03;100.00
33280;BME280;20403;43.114;12.434;2023-12-28T12:25:23;100259.47;;;11.96;100.00
33280;BME280;20403;43.114;12.434;2023-12-28T12:27:48;100258.47;;;11.91;100.00
33280;BME280;20403;43.114;12.434;2023-12-28T12:30:14;100261.25;;;11.83;100.00
33280;BME280;20403;43.114;12.434;2023-12-28T12:32:40;100253.00;;;11.72;100.00
33280;BME280;20403;43.114;12.434;2023-12-28T12:35:09;100249.78;;;11.70;100.00
33280;BME280;20403;43.114;12.434;2023-12-28T12:37:35;100247.78;;;11.72;100.00